Time;durP1;ratioP1;P1;durP2;ratioP2;P2;SDS_P1;SDS_P2;PMS_P1;PMS_P2;Temp;Humidity;BMP_temperature;BMP_pressure;BME280_temperature;BME280_humidity;BME280_pressure;Samples;Min_cycle;Max_cycle;Signal;HPM_P1;HPM_P2
2023/08/12 00:00:36;;;;;;;10.90;4.90;;;;;;;17.67;80.29;96316.16;2067100;28;20050;-59
2023/08/12 00:01:37;;;;;;;20.45;5.78;;;;;;;17.68;79.96;96307.31;2066546;28;20057;-59
2023/08/12 00:02:39;;;;;;;13.60;4.72;;;;;;;17.69;79.77;96308.16;2067033;28;20058;-59
2023/08/12 00:03:40;;;;;;;8.90;4.88;;;;;;;17.68;79.60;96309.13;2066736;28;20058;-59
2023/08/12 00:04:41;;;;;;;12.20;5.05;;;;;;;17.72;79.40;96308.81;2067189;28;20535;-59
2023/08/12 00:05:43;;;;;;;13.15;4.82;;;;;;;17.72;80.24;96307.94;2066855;28;20062;-59
2023/08/12 00:06:44;;;;;;;12.38;4.63;;;;;;;17.73;80.28;96310.47;2066617;28;20406;-58
2023/08/12 00:07:45;;;;;;;11.52;5.47;;;;;;;17.71;79.60;96304.47;2066434;28;20054;-59
2023/08/12 00:08:46;;;;;;;11.98;5.03;;;;;;;17.68;81.00;96307.31;2067270;28;20054;-59
2023/08/12 00:09:49;;;;;;;12.13;4.82;;;;;;;17.60;79.65;96309.66;2067107;28;20116;-59
2023/08/12 00:10:50;;;;;;;17.00;5.15;;;;;;;17.63;80.74;96301.56;2066697;28;20073;-59
2023/08/12 00:11:51;;;;;;;15.18;4.65;;;;;;;17.60;80.40;96294.75;2067018;28;20053;-59
2023/08/12 00:12:52;;;;;;;11.80;4.90;;;;;;;17.58;80.57;96303.66;2066976;28;20062;-58
2023/08/12 00:13:54;;;;;;;10.45;4.40;;;;;;;17.55;81.56;96306.50;2066731;28;20054;-59
2023/08/12 00:14:55;;;;;;;10.90;5.28;;;;;;;17.55;81.33;96306.50;2066674;28;20066;-58
2023/08/12 00:15:56;;;;;;;14.70;5.85;;;;;;;17.53;81.26;96305.78;2067157;28;20483;-59
2023/08/12 00:16:57;;;;;;;10.95;4.43;;;;;;;17.47;81.62;96303.59;2066556;28;20490;-59
2023/08/12 00:17:58;;;;;;;10.30;5.10;;;;;;;17.45;82.73;96303.69;2066765;28;20046;-59
2023/08/12 00:19:00;;;;;;;13.73;4.85;;;;;;;17.40;83.02;96304.03;2066956;28;20058;-59
2023/08/12 00:20:05;;;;;;;9.48;5.30;;;;;;;17.37;82.42;96299.00;2067219;28;20050;-59
2023/08/12 00:21:07;;;;;;;10.75;4.57;;;;;;;17.42;81.82;96298.66;2066956;28;20506;-59
2023/08/12 00:22:08;;;;;;;10.05;5.13;;;;;;;17.41;81.99;96300.44;2066342;28;20061;-59
2023/08/12 00:23:09;;;;;;;8.18;4.95;;;;;;;17.41;82.32;96297.81;2067092;28;20491;-59
2023/08/12 00:24:11;;;;;;;12.15;5.30;;;;;;;17.39;81.92;96298.88;2066432;28;20054;-59
2023/08/12 00:25:12;;;;;;;9.20;5.13;;;;;;;17.37;82.07;96291.13;2067379;28;20050;-59
2023/08/12 00:26:13;;;;;;;8.13;4.78;;;;;;;17.35;82.00;96292.16;2067228;28;20464;-61
2023/08/12 00:27:14;;;;;;;8.60;5.20;;;;;;;17.39;81.63;96291.00;2066606;28;20054;-61
2023/08/12 00:28:15;;;;;;;10.00;5.18;;;;;;;17.40;82.32;96298.78;2066622;28;20061;-58
2023/08/12 00:29:16;;;;;;;7.38;5.00;;;;;;;17.41;81.70;96295.19;2066610;28;20077;-59
2023/08/12 00:30:17;;;;;;;9.60;4.40;;;;;;;17.40;82.18;96290.03;2057657;28;20058;-59
2023/08/12 00:31:19;;;;;;;14.10;5.55;;;;;;;17.36;82.13;96297.28;2058214;28;20054;-59
2023/08/12 00:32:21;;;;;;;8.93;4.60;;;;;;;17.28;81.75;96285.66;2058229;28;20055;-59
2023/08/12 00:33:23;;;;;;;7.88;5.00;;;;;;;17.28;82.43;96290.91;2057883;28;20054;-59
2023/08/12 00:34:24;;;;;;;10.10;5.03;;;;;;;17.26;82.60;96301.50;2066595;28;20085;-59
2023/08/12 00:35:25;;;;;;;12.43;4.50;;;;;;;17.22;83.36;96302.66;2066661;28;20062;-59
2023/08/12 00:36:26;;;;;;;12.32;4.68;;;;;;;17.17;83.36;96297.72;2067010;28;20050;-59
2023/08/12 00:37:27;;;;;;;9.20;5.18;;;;;;;17.09;83.88;96296.59;2066953;28;20054;-59
2023/08/12 00:38:28;;;;;;;11.80;4.90;;;;;;;16.98;84.20;96294.69;2066534;28;20054;-59
2023/08/12 00:39:29;;;;;;;9.93;4.90;;;;;;;17.01;84.40;96299.72;2066091;28;20046;-59
2023/08/12 00:40:31;;;;;;;9.43;5.30;;;;;;;16.95;84.89;96293.13;2066579;28;20081;-59
2023/08/12 00:41:32;;;;;;;13.02;5.68;;;;;;;16.95;84.73;96294.91;2066561;28;20486;-59
2023/08/12 00:42:33;;;;;;;8.88;5.30;;;;;;;16.96;84.92;96292.16;2057967;28;20062;-59
2023/08/12 00:43:34;;;;;;;11.75;5.60;;;;;;;16.95;85.37;96293.13;2058153;28;20054;-59
2023/08/12 00:44:35;;;;;;;6.53;5.00;;;;;;;16.94;84.75;96285.34;2066268;28;20475;-59
2023/08/12 00:45:37;;;;;;;9.05;5.00;;;;;;;16.94;84.87;96294.03;2066908;28;20062;-59
2023/08/12 00:46:38;;;;;;;8.40;5.05;;;;;;;16.92;85.20;96293.31;2066295;28;20050;-59
2023/08/12 00:47:39;;;;;;;9.73;5.28;;;;;;;16.85;85.67;96278.94;2058180;28;20419;-59
2023/08/12 00:48:40;;;;;;;8.35;5.28;;;;;;;16.88;85.01;96285.75;2042319;29;20453;-59
2023/08/12 00:49:44;;;;;;;11.45;5.38;;;;;;;16.88;85.72;96291.84;2042283;29;20051;-59
2023/08/12 00:50:46;;;;;;;12.10;5.30;;;;;;;16.86;85.04;96290.25;2042826;29;20063;-59
2023/08/12 00:51:50;;;;;;;7.03;4.68;;;;;;;16.84;85.21;96287.75;2050955;28;20062;-58
2023/08/12 00:52:51;;;;;;;12.18;5.63;;;;;;;16.79;85.63;96289.03;2057872;28;20058;-59
2023/08/12 00:53:52;;;;;;;6.32;5.10;;;;;;;16.76;86.40;96285.63;2050227;28;20059;-59
2023/08/12 00:54:53;;;;;;;8.15;5.50;;;;;;;16.73;86.87;96285.84;2058196;28;20499;-59
2023/08/12 00:55:54;;;;;;;11.18;5.75;;;;;;;16.71;85.99;96279.84;2058424;28;20054;-58
2023/08/12 00:56:56;;;;;;;8.70;5.35;;;;;;;16.69;86.75;96291.38;2058025;28;20054;-59
2023/08/12 00:57:57;;;;;;;10.05;5.22;;;;;;;16.68;86.59;96281.81;2066493;28;20387;-61
2023/08/12 00:58:59;;;;;;;9.80;5.30;;;;;;;16.65;86.96;96280.25;2066817;28;20050;-61
2023/08/12 01:00:02;;;;;;;7.93;5.22;;;;;;;16.69;86.74;96279.09;2066447;28;20050;-59
2023/08/12 01:01:04;;;;;;;8.60;4.88;;;;;;;16.70;86.72;96279.94;2049852;29;20058;-58
2023/08/12 01:02:05;;;;;;;7.88;4.72;;;;;;;16.70;86.20;96279.94;2049794;29;20431;-61
2023/08/12 01:03:06;;;;;;;11.70;5.25;;;;;;;16.70;86.06;96272.06;2050031;29;20055;-61
2023/08/12 01:04:07;;;;;;;10.00;5.78;;;;;;;16.77;86.06;96270.75;2057711;28;20047;-59
2023/08/12 01:05:10;;;;;;;7.72;5.18;;;;;;;16.80;84.75;96272.34;2057925;28;20055;-58
2023/08/12 01:06:11;;;;;;;9.40;5.40;;;;;;;16.84;85.29;96271.16;2050413;28;20055;-58
2023/08/12 01:07:13;;;;;;;11.77;5.45;;;;;;;16.86;84.76;96270.13;2050160;28;20183;-58
2023/08/12 01:08:14;;;;;;;9.00;4.93;;;;;;;16.85;84.46;96267.63;2058095;28;20415;-59
2023/08/12 01:09:15;;;;;;;8.02;4.93;;;;;;;16.86;84.80;96272.75;2058309;28;20050;-59
2023/08/12 01:10:16;;;;;;;5.60;4.60;;;;;;;16.83;84.49;96264.25;2057927;28;20051;-59
2023/08/12 01:11:25;;;;;;;7.22;5.43;;;;;;;16.83;84.72;96259.00;2057788;28;20055;-61
2023/08/12 01:12:29;;;;;;;9.35;5.53;;;;;;;16.81;85.13;96253.00;2035350;29;20056;-59
2023/08/12 01:13:34;;;;;;;6.97;4.72;;;;;;;16.81;84.88;96266.13;2036075;28;20515;-58
2023/08/12 01:14:43;;;;;;;8.57;4.70;;;;;;;16.80;85.49;96262.66;2034572;29;20064;-59
2023/08/12 01:15:44;;;;;;;8.27;4.95;;;;;;;16.78;85.07;96264.56;2037009;28;20484;-59
2023/08/12 01:16:47;;;;;;;7.18;4.95;;;;;;;16.72;84.32;96254.44;2034343;29;20060;-59
2023/08/12 01:17:51;;;;;;;6.03;4.78;;;;;;;16.78;85.01;96259.31;2043146;28;20054;-59
2023/08/12 01:18:52;;;;;;;9.43;5.28;;;;;;;16.73;84.04;96250.88;2065773;28;20085;-59
2023/08/12 01:19:54;;;;;;;7.35;4.93;;;;;;;16.78;84.24;96261.09;2066203;28;20443;-58
2023/08/12 01:20:55;;;;;;;9.20;5.03;;;;;;;16.72;84.81;96251.84;2057770;28;20054;-59
2023/08/12 01:21:56;;;;;;;6.80;4.95;;;;;;;16.70;84.74;96245.84;2057648;28;20062;-58
2023/08/12 01:23:11;;;;;;;7.70;5.38;;;;;;;16.71;84.31;96256.25;2049720;29;20047;-58
2023/08/12 01:24:12;;;;;;;10.65;5.18;;;;;;;16.73;84.62;96256.13;2054019;28;20047;-58
2023/08/12 01:25:13;;;;;;;8.00;5.15;;;;;;;16.66;85.22;96250.47;2066355;28;20076;-59
2023/08/12 01:26:14;;;;;;;8.10;5.28;;;;;;;16.63;84.76;96244.59;2058164;28;20062;-58
2023/08/12 01:27:16;;;;;;;7.50;5.15;;;;;;;16.57;85.42;96240.59;2058032;28;20053;-59
2023/08/12 01:28:17;;;;;;;5.65;4.55;;;;;;;16.56;85.81;96244.16;2066517;28;20057;-59
2023/08/12 01:29:18;;;;;;;7.88;5.40;;;;;;;16.49;85.60;96238.50;2066412;28;20050;-58
2023/08/12 01:30:20;;;;;;;10.68;5.30;;;;;;;16.47;85.59;96240.38;2057808;28;20051;-58
2023/08/12 01:31:30;;;;;;;7.78;5.35;;;;;;;16.48;85.93;96242.03;2057381;28;20061;-59
2023/08/12 01:32:39;;;;;;;7.63;4.82;;;;;;;16.46;85.69;96243.91;2050974;28;20055;-59
2023/08/12 01:33:49;;;;;;;10.90;4.93;;;;;;;16.45;85.96;96242.25;2051791;28;20047;-60
2023/08/12 01:34:53;;;;;;;8.27;4.88;;;;;;;16.41;85.65;96238.19;2059240;28;20050;-61
2023/08/12 01:35:56;;;;;;;7.13;5.05;;;;;;;16.44;86.16;96243.22;2049879;29;20047;-61
2023/08/12 01:36:57;;;;;;;8.30;5.10;;;;;;;16.41;86.55;96240.78;2050704;28;20055;-58
2023/08/12 01:37:58;;;;;;;9.13;5.25;;;;;;;16.40;86.26;96239.09;2049965;28;20058;-59
2023/08/12 01:38:59;;;;;;;13.07;5.32;;;;;;;16.32;85.45;96223.88;2026352;29;20063;-58
2023/08/12 01:40:04;;;;;;;10.38;5.28;;;;;;;16.39;86.07;96237.44;2041235;29;20456;-58
2023/08/12 01:41:06;;;;;;;7.28;4.90;;;;;;;16.37;85.98;96231.44;2058331;28;20050;-59
2023/08/12 01:42:07;;;;;;;7.95;5.97;;;;;;;16.38;86.88;96237.53;2057710;28;20043;-59
2023/08/12 01:43:08;;;;;;;9.10;5.63;;;;;;;16.37;86.35;96241.94;2057888;28;20050;-58
2023/08/12 01:44:10;;;;;;;7.95;4.95;;;;;;;16.35;86.02;96243.81;2065776;28;20050;-59
2023/08/12 01:45:11;;;;;;;8.60;5.22;;;;;;;16.33;86.42;96243.06;2057971;28;20050;-59
2023/08/12 01:46:13;;;;;;;8.25;5.57;;;;;;;16.26;87.13;96231.31;2058019;28;20046;-59
2023/08/12 01:47:14;;;;;;;7.47;4.95;;;;;;;16.26;86.81;96247.03;2057725;28;20053;-59
2023/08/12 01:48:15;;;;;;;8.63;4.80;;;;;;;16.22;86.65;96237.69;2057645;28;20062;-59
2023/08/12 01:49:16;;;;;;;8.52;5.50;;;;;;;16.22;87.16;96245.56;2065606;28;20065;-58
2023/08/12 01:50:19;;;;;;;9.27;6.07;;;;;;;16.18;86.88;96236.22;2066187;28;20054;-59
2023/08/12 01:51:20;;;;;;;14.88;5.30;;;;;;;16.15;87.30;96236.44;2065989;28;20054;-59
2023/08/12 01:52:21;;;;;;;9.45;5.57;;;;;;;16.14;87.62;96237.34;2066284;28;20070;-59
2023/08/12 01:53:22;;;;;;;7.72;5.30;;;;;;;16.09;87.20;96222.78;2057706;28;20062;-59
2023/08/12 01:54:23;;;;;;;7.20;4.97;;;;;;;16.09;87.38;96232.41;2057351;28;20522;-59
2023/08/12 01:55:25;;;;;;;7.93;5.38;;;;;;;16.14;87.29;96232.13;2066326;28;20058;-56
2023/08/12 01:56:26;;;;;;;12.90;5.57;;;;;;;16.10;87.35;96229.69;2066423;28;20073;-56
2023/08/12 01:57:27;;;;;;;6.05;4.93;;;;;;;16.08;87.36;96230.75;2065473;28;20054;-55
2023/08/12 01:58:28;;;;;;;10.05;5.60;;;;;;;16.07;87.11;96231.69;2057704;28;20058;-56
2023/08/12 01:59:29;;;;;;;6.97;5.57;;;;;;;16.07;87.54;96227.28;2057552;28;20050;-56
2023/08/12 02:00:30;;;;;;;8.43;5.43;;;;;;;16.03;87.47;96228.41;2065615;28;20050;-59
2023/08/12 02:01:31;;;;;;;10.52;5.60;;;;;;;16.07;86.91;96226.44;2066091;28;20054;-58
2023/08/12 02:02:32;;;;;;;7.70;5.80;;;;;;;16.06;87.02;96225.63;2057924;28;20050;-58
2023/08/12 02:03:35;;;;;;;9.93;5.95;;;;;;;16.06;87.13;96230.84;2057840;28;20058;-58
2023/08/12 02:04:37;;;;;;;7.32;4.93;;;;;;;16.06;87.56;96228.25;2057436;28;20062;-58
2023/08/12 02:05:38;;;;;;;10.85;5.88;;;;;;;16.05;87.88;96228.31;2056903;28;20450;-56
2023/08/12 02:06:39;;;;;;;7.40;5.07;;;;;;;16.02;88.08;96229.38;2065544;28;20069;-56
2023/08/12 02:07:40;;;;;;;8.15;5.50;;;;;;;15.99;88.05;96226.94;2057292;28;20126;-56
2023/08/12 02:08:44;;;;;;;8.20;5.25;;;;;;;15.99;88.34;96223.50;2057840;28;20120;-55
2023/08/12 02:09:45;;;;;;;9.80;5.65;;;;;;;15.93;87.94;96219.50;2065511;28;20486;-58
2023/08/12 02:10:47;;;;;;;9.95;6.07;;;;;;;15.94;87.96;96228.19;2057447;28;20058;-58
2023/08/12 02:11:48;;;;;;;9.45;5.55;;;;;;;15.93;88.22;96221.25;2057277;28;20499;-58
2023/08/12 02:12:50;;;;;;;7.32;5.90;;;;;;;15.91;87.68;96231.84;2065725;28;20054;-58
2023/08/12 02:13:52;;;;;;;9.05;5.75;;;;;;;15.92;87.94;96220.41;2057474;28;20423;-58
2023/08/12 02:14:53;;;;;;;7.18;5.28;;;;;;;15.94;88.25;96228.19;2049447;28;20059;-57
2023/08/12 02:15:54;;;;;;;8.57;5.82;;;;;;;15.92;87.73;96230.91;2049449;29;20055;-58
2023/08/12 02:16:57;;;;;;;9.48;5.18;;;;;;;15.93;88.26;96218.63;2057208;28;20062;-58
2023/08/12 02:17:58;;;;;;;7.88;5.38;;;;;;;15.93;88.35;96229.97;2065897;28;20061;-58
2023/08/12 02:18:59;;;;;;;8.48;5.60;;;;;;;15.92;88.23;96225.66;2065908;28;20046;-58
2023/08/12 02:20:01;;;;;;;9.20;6.10;;;;;;;15.89;88.15;96223.25;2066194;28;20054;-58
2023/08/12 02:21:02;;;;;;;9.25;5.80;;;;;;;15.87;88.37;96227.72;2066184;28;20073;-58
2023/08/12 02:22:03;;;;;;;8.52;5.90;;;;;;;15.87;88.45;96225.13;2057527;28;20553;-58
2023/08/12 02:23:04;;;;;;;8.75;6.10;;;;;;;15.85;88.75;96225.22;2057370;28;20050;-58
2023/08/12 02:24:06;;;;;;;9.10;6.25;;;;;;;15.83;88.78;96216.63;2065176;28;20046;-58
2023/08/12 02:25:07;;;;;;;12.25;6.05;;;;;;;15.81;88.75;96225.53;2065991;28;20042;-58
2023/08/12 02:26:09;;;;;;;10.65;5.95;;;;;;;15.81;89.03;96215.88;2057400;28;20049;-58
2023/08/12 02:27:10;;;;;;;7.75;5.93;;;;;;;15.78;88.85;96210.84;2057633;28;20065;-58
2023/08/12 02:28:11;;;;;;;7.90;5.85;;;;;;;15.81;88.88;96218.50;2057573;28;20403;-58
2023/08/12 02:29:12;;;;;;;8.73;6.60;;;;;;;15.82;88.49;96217.56;2057432;28;20061;-58
2023/08/12 02:30:13;;;;;;;11.68;6.38;;;;;;;15.82;89.42;96219.34;2065928;28;20050;-58
2023/08/12 02:31:15;;;;;;;7.03;5.82;;;;;;;15.79;88.41;96219.53;2057035;28;20055;-58
2023/08/12 02:32:16;;;;;;;12.52;6.30;;;;;;;15.79;89.40;96224.78;2056458;28;20047;-57
2023/08/12 02:33:17;;;;;;;7.50;6.20;;;;;;;15.75;89.34;96221.53;2065793;28;20050;-57
2023/08/12 02:34:18;;;;;;;8.38;6.30;;;;;;;15.75;89.31;96223.31;2065472;28;20467;-58
2023/08/12 02:35:20;;;;;;;11.25;6.70;;;;;;;15.71;89.37;96219.19;2065466;28;20042;-58
2023/08/12 02:36:21;;;;;;;8.57;6.45;;;;;;;15.68;89.54;96232.44;2065971;28;20046;-58
2023/08/12 02:37:22;;;;;;;8.45;6.47;;;;;;;15.64;89.48;96218.72;2065156;28;20079;-57
2023/08/12 02:38:23;;;;;;;8.10;6.10;;;;;;;15.54;89.82;96221.06;2057270;28;20482;-57
2023/08/12 02:39:25;;;;;;;12.68;6.07;;;;;;;15.51;90.32;96213.41;2049329;28;20058;-57
2023/08/12 02:40:26;;;;;;;8.55;6.28;;;;;;;15.50;90.69;96227.44;2057159;28;20486;-58
2023/08/12 02:41:27;;;;;;;9.40;6.78;;;;;;;15.47;90.02;96214.53;2065299;28;20050;-58
2023/08/12 02:42:29;;;;;;;7.90;6.57;;;;;;;15.47;90.86;96216.31;2056892;28;20051;-58
2023/08/12 02:43:30;;;;;;;8.77;6.43;;;;;;;15.47;90.74;96211.91;2048532;29;20059;-58
2023/08/12 02:44:31;;;;;;;7.85;6.28;;;;;;;15.49;90.95;96209.22;2057321;28;20055;-57
2023/08/12 02:45:32;;;;;;;8.57;6.00;;;;;;;15.50;90.53;96208.28;2065550;28;20418;-57
2023/08/12 02:46:33;;;;;;;9.10;5.88;;;;;;;15.50;90.41;96216.13;2056836;28;20062;-57
2023/08/12 02:47:34;;;;;;;9.15;6.20;;;;;;;15.48;91.15;96211.00;2057338;28;20066;-57
2023/08/12 02:48:36;;;;;;;10.13;6.53;;;;;;;15.49;90.75;96206.59;2065580;28;20077;-57
2023/08/12 02:49:37;;;;;;;9.93;6.22;;;;;;;15.52;90.13;96214.25;2057220;28;20482;-57
2023/08/12 02:50:38;;;;;;;8.02;6.47;;;;;;;15.47;90.64;96195.38;2049448;28;20058;-58
2023/08/12 02:51:39;;;;;;;9.68;6.30;;;;;;;15.50;90.15;96206.50;2057120;28;20396;-57
2023/08/12 02:52:40;;;;;;;9.43;6.97;;;;;;;15.45;90.57;96205.97;2057337;28;20058;-58
2023/08/12 02:53:42;;;;;;;8.95;6.30;;;;;;;15.48;90.32;96207.56;2057334;28;20054;-58
2023/08/12 02:54:43;;;;;;;7.80;6.15;;;;;;;15.41;90.62;96196.63;2065346;28;20475;-58
2023/08/12 02:55:47;;;;;;;8.55;6.93;;;;;;;15.46;91.01;96205.03;2057285;28;20054;-58
2023/08/12 02:56:49;;;;;;;8.32;6.63;;;;;;;15.37;91.29;96189.88;2056953;28;20058;-57
2023/08/12 02:57:51;;;;;;;9.27;6.72;;;;;;;15.38;91.01;96200.25;2057323;28;20055;-58
2023/08/12 02:58:52;;;;;;;7.28;6.20;;;;;;;15.36;90.72;96203.91;2064726;28;20076;-56
2023/08/12 02:59:53;;;;;;;9.65;6.45;;;;;;;15.37;90.92;96197.72;2065201;28;20495;-58
2023/08/12 03:00:55;;;;;;;10.38;6.43;;;;;;;15.39;91.94;96201.09;2056998;28;20054;-58
2023/08/12 03:01:56;;;;;;;9.50;6.45;;;;;;;15.37;91.31;96195.13;2049080;28;20070;-58
2023/08/12 03:02:57;;;;;;;9.10;6.40;;;;;;;15.36;91.45;96198.69;2056916;28;20058;-57
2023/08/12 03:03:58;;;;;;;7.93;6.80;;;;;;;15.34;91.64;96203.16;2057170;28;20057;-58
2023/08/12 03:04:59;;;;;;;8.65;5.85;;;;;;;15.32;91.88;96203.28;2049146;29;20435;-58
2023/08/12 03:06:00;;;;;;;10.63;6.60;;;;;;;15.31;91.71;96198.13;2056758;28;20061;-58
2023/08/12 03:07:03;;;;;;;10.15;6.60;;;;;;;15.28;92.14;96199.16;2056742;28;20062;-58
2023/08/12 03:08:05;;;;;;;8.50;6.18;;;;;;;15.28;91.65;96199.16;2057221;28;20065;-58
2023/08/12 03:09:06;;;;;;;8.27;6.75;;;;;;;15.26;92.36;96200.19;2057077;28;20077;-58
2023/08/12 03:10:08;;;;;;;8.93;6.28;;;;;;;15.24;91.78;96199.47;2056925;28;20054;-58
2023/08/12 03:11:09;;;;;;;8.90;5.90;;;;;;;15.21;92.49;96195.28;2065674;28;20398;-58
2023/08/12 03:12:10;;;;;;;8.88;6.25;;;;;;;15.21;92.21;96196.09;2065847;28;20061;-58
2023/08/12 03:13:11;;;;;;;8.10;6.22;;;;;;;15.19;92.53;96197.97;2056901;28;20050;-58
2023/08/12 03:14:12;;;;;;;8.35;6.40;;;;;;;15.20;92.88;96197.03;2049039;28;20055;-58
2023/08/12 03:15:13;;;;;;;8.18;6.57;;;;;;;15.18;92.34;96191.06;2057268;28;20412;-57
2023/08/12 03:16:15;;;;;;;8.75;6.53;;;;;;;15.08;92.04;96183.88;2057073;28;20551;-58
2023/08/12 03:17:17;;;;;;;8.10;6.25;;;;;;;15.09;92.33;96196.84;2056994;28;20055;-57
2023/08/12 03:18:18;;;;;;;9.52;6.82;;;;;;;15.07;92.32;96195.25;2064045;28;20533;-58
2023/08/12 03:19:20;;;;;;;9.27;6.40;;;;;;;15.03;93.21;96191.19;2057014;28;20470;-58
2023/08/12 03:20:21;;;;;;;9.00;7.05;;;;;;;15.01;93.29;96191.25;2056490;28;20069;-58
2023/08/12 03:21:22;;;;;;;12.45;7.50;;;;;;;15.03;93.58;96197.25;2056776;28;20447;-58
2023/08/12 03:22:27;;;;;;;9.20;6.65;;;;;;;15.01;93.18;96201.72;2049403;28;20058;-58
2023/08/12 03:23:28;;;;;;;9.50;6.80;;;;;;;14.98;93.42;96202.75;2049282;28;20066;-57
2023/08/12 03:24:29;;;;;;;7.90;6.65;;;;;;;14.91;93.32;96193.59;2048732;28;20055;-58
2023/08/12 03:25:31;;;;;;;12.20;6.60;;;;;;;14.92;94.05;96204.91;2048901;28;20055;-58
2023/08/12 03:26:32;;;;;;;8.10;6.85;;;;;;;14.90;93.72;96204.16;2056549;28;20416;-58
2023/08/12 03:27:33;;;;;;;7.45;6.50;;;;;;;14.88;93.94;96203.41;2064749;28;20050;-58
2023/08/12 03:28:35;;;;;;;9.57;7.53;;;;;;;14.85;94.33;96204.44;2064511;28;20065;-58
2023/08/12 03:29:36;;;;;;;7.93;6.18;;;;;;;14.82;94.21;96203.78;2065312;28;20055;-58
2023/08/12 03:30:37;;;;;;;8.13;6.45;;;;;;;14.77;94.40;96207.50;2056419;28;20062;-58
2023/08/12 03:31:39;;;;;;;9.48;7.20;;;;;;;14.70;94.49;96194.88;2048804;28;20427;-58
2023/08/12 03:32:40;;;;;;;9.02;6.97;;;;;;;14.70;95.39;96210.56;2056093;28;20065;-58
2023/08/12 03:33:41;;;;;;;9.73;7.63;;;;;;;14.67;95.47;96206.38;2056381;28;20058;-58
2023/08/12 03:34:42;;;;;;;10.10;6.93;;;;;;;14.62;95.39;96200.59;2056962;28;20055;-58
2023/08/12 03:35:48;;;;;;;8.77;6.95;;;;;;;14.58;96.03;96199.09;2056882;28;20054;-58
2023/08/12 03:36:50;;;;;;;11.50;7.38;;;;;;;14.61;95.56;96214.59;2049418;28;20542;-58
2023/08/12 03:37:54;;;;;;;8.90;7.43;;;;;;;14.58;96.38;96209.56;2056306;28;20054;-58
2023/08/12 03:38:55;;;;;;;8.65;7.13;;;;;;;14.60;96.14;96207.69;2056899;28;20050;-58
2023/08/12 03:40:00;;;;;;;9.68;6.82;;;;;;;14.57;95.82;96210.50;2056820;28;20051;-58
2023/08/12 03:41:03;;;;;;;10.45;7.30;;;;;;;14.58;96.35;96206.09;2048615;28;20054;-58
2023/08/12 03:42:05;;;;;;;10.63;7.35;;;;;;;14.56;96.56;96211.41;2049072;28;20051;-58
2023/08/12 03:43:07;;;;;;;8.60;6.97;;;;;;;14.52;96.02;96209.88;2057089;28;20062;-58
2023/08/12 03:44:08;;;;;;;9.30;7.70;;;;;;;14.51;96.63;96214.28;2056761;28;20058;-58
2023/08/12 03:45:09;;;;;;;9.45;7.68;;;;;;;14.51;96.38;96205.56;2057320;28;20050;-57
2023/08/12 03:46:10;;;;;;;10.05;7.60;;;;;;;14.51;96.69;96213.41;2065122;28;20047;-58
2023/08/12 03:47:12;;;;;;;10.85;8.45;;;;;;;14.51;96.93;96210.81;2064922;28;20446;-58
2023/08/12 03:48:13;;;;;;;10.93;8.30;;;;;;;14.52;97.19;96209.88;2064658;28;20050;-58
2023/08/12 03:49:14;;;;;;;10.95;7.57;;;;;;;14.52;96.94;96212.50;2057156;28;20057;-58
2023/08/12 03:50:16;;;;;;;10.75;8.32;;;;;;;14.52;96.77;96212.50;2048987;28;20055;-58
2023/08/12 03:51:18;;;;;;;12.27;9.18;;;;;;;14.49;96.81;96208.31;2056909;28;20058;-58
2023/08/12 03:52:19;;;;;;;10.65;8.05;;;;;;;14.51;96.83;96210.81;2064562;28;20050;-58
2023/08/12 03:53:21;;;;;;;13.15;8.40;;;;;;;14.50;96.96;96209.13;2065248;28;20060;-58
2023/08/12 03:54:22;;;;;;;12.98;8.75;;;;;;;14.49;96.88;96207.47;2056918;28;20051;-58
2023/08/12 03:55:23;;;;;;;11.38;8.52;;;;;;;14.47;97.56;96209.31;2048601;29;20059;-58
2023/08/12 03:56:24;;;;;;;12.20;8.35;;;;;;;14.41;97.17;96199.25;2056585;28;20054;-58
2023/08/12 03:57:25;;;;;;;10.13;8.50;;;;;;;14.42;97.33;96201.75;2057147;28;20066;-58
2023/08/12 03:58:27;;;;;;;11.10;8.77;;;;;;;14.41;97.29;96200.06;2056843;28;20050;-58
2023/08/12 03:59:28;;;;;;;12.07;9.60;;;;;;;14.40;96.96;96205.38;2048644;28;20480;-58
2023/08/12 04:00:29;;;;;;;13.80;9.32;;;;;;;14.39;96.98;96201.09;2056845;28;20058;-58
2023/08/12 04:01:34;;;;;;;12.82;8.82;;;;;;;14.38;97.66;96207.22;2065366;28;20396;-58
2023/08/12 04:02:35;;;;;;;11.80;10.00;;;;;;;14.40;97.26;96211.44;2065529;28;20069;-58
2023/08/12 04:03:36;;;;;;;13.73;9.43;;;;;;;14.40;97.14;96202.78;2065588;28;20056;-58
2023/08/12 04:04:37;;;;;;;11.98;9.10;;;;;;;14.40;97.56;96208.00;2057209;28;20054;-58
2023/08/12 04:05:47;;;;;;;12.50;9.40;;;;;;;14.39;97.06;96206.31;2048830;29;20435;-58
2023/08/12 04:06:51;;;;;;;12.48;9.65;;;;;;;14.34;97.37;96201.34;2058267;28;20055;-58
2023/08/12 04:07:52;;;;;;;13.52;9.35;;;;;;;14.39;97.91;96207.16;2056687;28;20167;-58
2023/08/12 04:08:53;;;;;;;14.10;10.15;;;;;;;14.38;97.48;96205.50;2057113;28;20070;-58
2023/08/12 04:09:54;;;;;;;11.93;9.38;;;;;;;14.41;98.39;96209.69;2064791;28;20068;-58
2023/08/12 04:10:55;;;;;;;12.05;9.70;;;;;;;14.40;98.07;96211.44;2065060;28;20050;-58
2023/08/12 04:11:56;;;;;;;12.93;10.27;;;;;;;14.38;97.73;96208.09;2056864;28;20058;-58
2023/08/12 04:12:57;;;;;;;15.98;9.52;;;;;;;14.37;97.81;96208.19;2056559;28;20503;-58
2023/08/12 04:13:59;;;;;;;13.60;10.18;;;;;;;14.37;98.21;96200.34;2064408;28;20058;-58
2023/08/12 04:15:03;;;;;;;10.13;9.02;;;;;;;14.37;98.75;96214.25;2056937;28;20059;-58
2023/08/12 04:16:04;;;;;;;12.93;8.85;;;;;;;14.39;98.44;96206.31;2057535;28;20078;-57
2023/08/12 04:17:05;;;;;;;13.10;9.13;;;;;;;14.47;98.49;96215.38;2056862;28;20510;-57
2023/08/12 04:18:07;;;;;;;10.30;8.73;;;;;;;14.53;98.38;96214.22;2056781;28;20063;-58
2023/08/12 04:19:09;;;;;;;12.43;8.88;;;;;;;14.60;98.59;96209.47;2049037;28;20054;-58
2023/08/12 04:20:10;;;;;;;8.68;7.70;;;;;;;14.70;98.43;96213.19;2048993;29;20056;-58
2023/08/12 04:21:12;;;;;;;11.18;7.95;;;;;;;14.75;97.51;96205.91;2056620;28;20055;-58
2023/08/12 04:22:13;;;;;;;11.10;8.55;;;;;;;14.86;97.45;96213.09;2056441;28;20050;-58
2023/08/12 04:23:14;;;;;;;10.75;7.40;;;;;;;14.95;96.25;96208.16;2056441;28;20054;-58
2023/08/12 04:24:15;;;;;;;11.65;7.47;;;;;;;14.98;95.40;96199.28;2056900;28;20058;-58
2023/08/12 04:25:17;;;;;;;10.05;7.82;;;;;;;15.03;94.19;96207.69;2057109;28;20055;-57
2023/08/12 04:26:18;;;;;;;8.77;7.30;;;;;;;15.09;93.80;96209.09;2056720;28;20062;-58
2023/08/12 04:27:19;;;;;;;10.45;7.35;;;;;;;15.19;93.04;96210.22;2048848;29;20059;-58
2023/08/12 04:28:20;;;;;;;8.50;6.32;;;;;;;15.25;92.39;96204.59;2056417;28;20059;-58
2023/08/12 04:29:23;;;;;;;9.15;6.82;;;;;;;15.34;92.27;96206.66;2057165;28;20061;-57
2023/08/12 04:30:26;;;;;;;11.32;6.80;;;;;;;15.42;91.20;96203.53;2058047;28;20499;-58
2023/08/12 04:31:27;;;;;;;9.30;7.00;;;;;;;15.48;91.02;96197.91;2057996;28;20059;-58
2023/08/12 04:32:28;;;;;;;7.45;6.35;;;;;;;15.55;90.28;96193.13;2050049;29;20055;-58
2023/08/12 04:33:29;;;;;;;8.18;6.22;;;;;;;15.74;90.43;96200.66;2049856;29;20047;-58
2023/08/12 04:34:30;;;;;;;8.82;6.38;;;;;;;15.83;89.40;96197.47;2050588;29;20063;-56
2023/08/12 04:35:32;;;;;;;11.27;6.63;;;;;;;15.91;87.70;96203.03;2057671;28;20435;-57
2023/08/12 04:36:33;;;;;;;8.20;6.30;;;;;;;16.09;87.96;96203.59;2057844;28;20410;-56
2023/08/12 04:37:37;;;;;;;10.20;5.88;;;;;;;16.19;86.97;96209.06;2050865;28;20070;-56
2023/08/12 04:38:39;;;;;;;8.27;6.05;;;;;;;16.25;86.27;96199.03;2057940;28;20051;-56
2023/08/12 04:39:42;;;;;;;8.95;6.28;;;;;;;16.28;85.86;96200.63;2058243;28;20061;-56
2023/08/12 04:40:44;;;;;;;8.25;5.85;;;;;;;16.30;86.02;96203.97;2050087;28;20055;-57
2023/08/12 04:41:46;;;;;;;6.40;5.53;;;;;;;16.37;85.33;96201.78;2049938;28;20055;-57
2023/08/12 04:42:47;;;;;;;9.15;5.63;;;;;;;16.40;84.20;96205.03;2050316;29;20055;-57
2023/08/12 04:43:49;;;;;;;9.15;5.43;;;;;;;16.61;84.88;96207.97;2050181;29;20066;-57
2023/08/12 04:44:50;;;;;;;7.93;5.63;;;;;;;16.74;83.91;96205.38;2057506;28;20066;-57
2023/08/12 04:45:52;;;;;;;9.05;6.13;;;;;;;16.93;82.88;96203.19;2050057;29;20066;-57
2023/08/12 04:46:54;;;;;;;8.30;5.95;;;;;;;17.26;82.61;96208.81;2058492;28;20046;-57
2023/08/12 04:47:57;;;;;;;7.63;5.47;;;;;;;17.27;79.98;96198.22;2058217;28;20099;-57
2023/08/12 04:48:58;;;;;;;12.48;5.50;;;;;;;17.21;80.10;96206.50;2058157;28;20054;-57